sensor_id;sensor_type;location;lat;lon;timestamp;temperature;humidity
26537;DHT22;14204;51.262;5.488;2023-03-01T00:01:18;2.00;99.90
26537;DHT22;14204;51.262;5.488;2023-03-01T00:03:44;2.00;99.90
26537;DHT22;14204;51.262;5.488;2023-03-01T00:06:10;2.00;99.90
26537;DHT22;14204;51.262;5.488;2023-03-01T00:08:36;2.00;99.90
26537;DHT22;14204;51.262;5.488;2023-03-01T00:11:15;1.90;99.90
26537;DHT22;14204;51.262;5.488;2023-03-01T00:13:43;1.90;99.90
26537;DHT22;14204;51.262;5.488;2023-03-01T00:16:21;1.90;99.90
26537;DHT22;14204;51.262;5.488;2023-03-01T00:18:47;1.90;99.90
26537;DHT22;14204;51.262;5.488;2023-03-01T00:21:13;1.90;99.90
26537;DHT22;14204;51.262;5.488;2023-03-01T00:23:39;1.90;99.90
26537;DHT22;14204;51.262;5.488;2023-03-01T00:26:07;1.90;99.90
26537;DHT22;14204;51.262;5.488;2023-03-01T00:28:33;1.90;99.90
26537;DHT22;14204;51.262;5.488;2023-03-01T00:31:15;1.90;99.90
26537;DHT22;14204;51.262;5.488;2023-03-01T00:33:42;1.90;99.90
26537;DHT22;14204;51.262;5.488;2023-03-01T00:36:09;1.90;99.90
26537;DHT22;14204;51.262;5.488;2023-03-01T00:38:36;1.90;99.90
26537;DHT22;14204;51.262;5.488;2023-03-01T00:41:10;1.90;99.90
26537;DHT22;14204;51.262;5.488;2023-03-01T00:43:37;1.90;99.90
26537;DHT22;14204;51.262;5.488;2023-03-01T00:46:04;1.90;99.90
26537;DHT22;14204;51.262;5.488;2023-03-01T00:48:31;1.80;99.90
26537;DHT22;14204;51.262;5.488;2023-03-01T00:50:57;1.90;99.90
26537;DHT22;14204;51.262;5.488;2023-03-01T00:53:22;1.90;99.90
26537;DHT22;14204;51.262;5.488;2023-03-01T00:55:48;1.80;99.90
26537;DHT22;14204;51.262;5.488;2023-03-01T00:58:14;1.80;99.90
26537;DHT22;14204;51.262;5.488;2023-03-01T01:00:39;1.80;99.90
26537;DHT22;14204;51.262;5.488;2023-03-01T01:03:05;1.80;99.90
26537;DHT22;14204;51.262;5.488;2023-03-01T01:05:30;1.90;99.90
26537;DHT22;14204;51.262;5.488;2023-03-01T01:07:59;1.80;99.90
26537;DHT22;14204;51.262;5.488;2023-03-01T01:10:24;1.80;99.90
26537;DHT22;14204;51.262;5.488;2023-03-01T01:12:50;1.80;99.90
26537;DHT22;14204;51.262;5.488;2023-03-01T01:15:16;1.80;99.90
26537;DHT22;14204;51.262;5.488;2023-03-01T01:17:42;1.80;99.90
26537;DHT22;14204;51.262;5.488;2023-03-01T01:20:08;1.70;99.90
26537;DHT22;14204;51.262;5.488;2023-03-01T01:22:34;1.70;99.90
26537;DHT22;14204;51.262;5.488;2023-03-01T01:25:00;1.70;99.90
26537;DHT22;14204;51.262;5.488;2023-03-01T01:27:25;1.70;99.90
26537;DHT22;14204;51.262;5.488;2023-03-01T01:29:53;1.70;99.90
26537;DHT22;14204;51.262;5.488;2023-03-01T01:32:18;1.70;99.90
26537;DHT22;14204;51.262;5.488;2023-03-01T01:34:44;1.70;99.90
26537;DHT22;14204;51.262;5.488;2023-03-01T01:37:10;1.70;99.90
26537;DHT22;14204;51.262;5.488;2023-03-01T01:39:35;1.70;99.90
26537;DHT22;14204;51.262;5.488;2023-03-01T01:42:01;1.60;99.90
26537;DHT22;14204;51.262;5.488;2023-03-01T01:44:28;1.60;99.90
26537;DHT22;14204;51.262;5.488;2023-03-01T01:47:06;1.60;99.90
26537;DHT22;14204;51.262;5.488;2023-03-01T01:49:54;1.60;99.90
26537;DHT22;14204;51.262;5.488;2023-03-01T01:52:22;1.60;99.90
26537;DHT22;14204;51.262;5.488;2023-03-01T01:55:11;1.60;99.90
26537;DHT22;14204;51.262;5.488;2023-03-01T01:57:47;1.60;99.90
26537;DHT22;14204;51.262;5.488;2023-03-01T02:00:17;1.60;99.90
26537;DHT22;14204;51.262;5.488;2023-03-01T02:02:44;1.60;99.90
26537;DHT22;14204;51.262;5.488;2023-03-01T02:05:28;1.50;99.90
26537;DHT22;14204;51.262;5.488;2023-03-01T02:07:58;1.50;99.90
26537;DHT22;14204;51.262;5.488;2023-03-01T02:10:24;1.50;99.90
26537;DHT22;14204;51.262;5.488;2023-03-01T02:12:51;1.50;99.90
26537;DHT22;14204;51.262;5.488;2023-03-01T02:15:17;1.50;99.90
26537;DHT22;14204;51.262;5.488;2023-03-01T02:17:43;1.50;99.90
26537;DHT22;14204;51.262;5.488;2023-03-01T02:20:29;1.50;99.90
26537;DHT22;14204;51.262;5.488;2023-03-01T02:22:56;1.50;99.90
26537;DHT22;14204;51.262;5.488;2023-03-01T02:27:54;1.50;99.90
26537;DHT22;14204;51.262;5.488;2023-03-01T02:30:24;1.50;99.90
26537;DHT22;14204;51.262;5.488;2023-03-01T02:32:51;1.50;99.90
26537;DHT22;14204;51.262;5.488;2023-03-01T02:35:19;1.40;99.90
26537;DHT22;14204;51.262;5.488;2023-03-01T02:37:45;1.40;99.90
26537;DHT22;14204;51.262;5.488;2023-03-01T02:40:14;1.30;99.90
26537;DHT22;14204;51.262;5.488;2023-03-01T02:42:54;1.30;99.90
26537;DHT22;14204;51.262;5.488;2023-03-01T02:45:21;1.30;99.90
26537;DHT22;14204;51.262;5.488;2023-03-01T02:47:47;1.40;99.90
26537;DHT22;14204;51.262;5.488;2023-03-01T02:53:05;1.30;99.90
26537;DHT22;14204;51.262;5.488;2023-03-01T02:55:33;1.20;99.90
26537;DHT22;14204;51.262;5.488;2023-03-01T02:58:01;1.20;99.90
26537;DHT22;14204;51.262;5.488;2023-03-01T03:00:33;1.20;99.90
26537;DHT22;14204;51.262;5.488;2023-03-01T03:03:00;1.20;99.90
26537;DHT22;14204;51.262;5.488;2023-03-01T03:05:29;1.20;99.90
26537;DHT22;14204;51.262;5.488;2023-03-01T03:07:55;1.20;99.90
26537;DHT22;14204;51.262;5.488;2023-03-01T03:10:24;1.20;99.90
26537;DHT22;14204;51.262;5.488;2023-03-01T03:13:04;1.20;99.90
26537;DHT22;14204;51.262;5.488;2023-03-01T03:15:31;1.20;99.90
26537;DHT22;14204;51.262;5.488;2023-03-01T03:17:58;1.20;99.90
26537;DHT22;14204;51.262;5.488;2023-03-01T03:20:26;1.20;99.90
26537;DHT22;14204;51.262;5.488;2023-03-01T03:22:53;1.10;99.90
26537;DHT22;14204;51.262;5.488;2023-03-01T03:25:21;1.10;99.90
26537;DHT22;14204;51.262;5.488;2023-03-01T03:27:48;1.10;99.90
26537;DHT22;14204;51.262;5.488;2023-03-01T03:30:18;1.10;99.90
26537;DHT22;14204;51.262;5.488;2023-03-01T03:32:47;1.10;99.90
26537;DHT22;14204;51.262;5.488;2023-03-01T03:35:45;1.10;99.90
26537;DHT22;14204;51.262;5.488;2023-03-01T03:38:12;1.10;99.90
26537;DHT22;14204;51.262;5.488;2023-03-01T03:40:45;1.10;99.90
26537;DHT22;14204;51.262;5.488;2023-03-01T03:43:16;1.10;99.90
26537;DHT22;14204;51.262;5.488;2023-03-01T03:45:46;1.10;99.90
26537;DHT22;14204;51.262;5.488;2023-03-01T03:48:12;1.10;99.90
26537;DHT22;14204;51.262;5.488;2023-03-01T03:50:39;1.10;99.90
26537;DHT22;14204;51.262;5.488;2023-03-01T03:53:10;1.10;99.90
26537;DHT22;14204;51.262;5.488;2023-03-01T03:55:36;1.00;99.90
26537;DHT22;14204;51.262;5.488;2023-03-01T03:58:05;1.00;99.90
26537;DHT22;14204;51.262;5.488;2023-03-01T04:00:33;1.00;99.90
26537;DHT22;14204;51.262;5.488;2023-03-01T04:02:59;1.00;99.90
26537;DHT22;14204;51.262;5.488;2023-03-01T04:05:26;0.90;99.90
26537;DHT22;14204;51.262;5.488;2023-03-01T04:07:52;1.00;99.90
26537;DHT22;14204;51.262;5.488;2023-03-01T04:10:38;1.00;99.90
26537;DHT22;14204;51.262;5.488;2023-03-01T04:13:06;0.90;99.90
26537;DHT22;14204;51.262;5.488;2023-03-01T04:15:33;1.00;99.90
26537;DHT22;14204;51.262;5.488;2023-03-01T04:17:59;0.90;99.90
26537;DHT22;14204;51.262;5.488;2023-03-01T04:20:28;0.90;99.90
26537;DHT22;14204;51.262;5.488;2023-03-01T04:22:59;0.90;99.90
26537;DHT22;14204;51.262;5.488;2023-03-01T04:25:39;0.90;99.90
26537;DHT22;14204;51.262;5.488;2023-03-01T04:28:05;0.90;99.90
26537;DHT22;14204;51.262;5.488;2023-03-01T04:30:31;0.90;99.90
26537;DHT22;14204;51.262;5.488;2023-03-01T04:33:02;0.90;99.90
26537;DHT22;14204;51.262;5.488;2023-03-01T04:35:29;0.90;99.90
26537;DHT22;14204;51.262;5.488;2023-03-01T04:37:55;0.80;99.90
26537;DHT22;14204;51.262;5.488;2023-03-01T04:40:21;0.80;99.90
26537;DHT22;14204;51.262;5.488;2023-03-01T04:42:46;0.80;99.90
26537;DHT22;14204;51.262;5.488;2023-03-01T04:45:12;0.80;99.90
26537;DHT22;14204;51.262;5.488;2023-03-01T04:47:43;0.70;99.90
26537;DHT22;14204;51.262;5.488;2023-03-01T04:50:11;0.70;99.90
26537;DHT22;14204;51.262;5.488;2023-03-01T04:52:37;0.80;99.90
26537;DHT22;14204;51.262;5.488;2023-03-01T04:55:02;0.80;99.90
26537;DHT22;14204;51.262;5.488;2023-03-01T04:57:29;0.80;99.90
26537;DHT22;14204;51.262;5.488;2023-03-01T04:59:55;0.80;99.90
26537;DHT22;14204;51.262;5.488;2023-03-01T05:02:20;0.80;99.90
26537;DHT22;14204;51.262;5.488;2023-03-01T05:04:46;0.80;99.90
26537;DHT22;14204;51.262;5.488;2023-03-01T05:07:12;0.80;99.90
26537;DHT22;14204;51.262;5.488;2023-03-01T05:09:38;0.80;99.90
26537;DHT22;14204;51.262;5.488;2023-03-01T05:12:04;0.80;99.90
26537;DHT22;14204;51.262;5.488;2023-03-01T05:14:30;0.80;99.90
26537;DHT22;14204;51.262;5.488;2023-03-01T05:16:55;0.70;99.90
26537;DHT22;14204;51.262;5.488;2023-03-01T05:19:29;0.70;99.90
26537;DHT22;14204;51.262;5.488;2023-03-01T05:21:57;0.60;99.90
26537;DHT22;14204;51.262;5.488;2023-03-01T05:24:33;0.60;99.90
26537;DHT22;14204;51.262;5.488;2023-03-01T05:27:00;0.60;99.90
26537;DHT22;14204;51.262;5.488;2023-03-01T05:29:27;0.60;99.90
26537;DHT22;14204;51.262;5.488;2023-03-01T05:31:58;0.60;99.90
26537;DHT22;14204;51.262;5.488;2023-03-01T05:34:25;0.60;99.90
26537;DHT22;14204;51.262;5.488;2023-03-01T05:36:52;0.50;99.90
26537;DHT22;14204;51.262;5.488;2023-03-01T05:39:23;0.50;99.90
26537;DHT22;14204;51.262;5.488;2023-03-01T05:41:56;0.50;99.90
26537;DHT22;14204;51.262;5.488;2023-03-01T05:44:22;0.50;99.90
26537;DHT22;14204;51.262;5.488;2023-03-01T05:46:48;0.50;99.90
26537;DHT22;14204;51.262;5.488;2023-03-01T05:49:15;0.50;99.90
26537;DHT22;14204;51.262;5.488;2023-03-01T05:51:41;0.50;99.90
26537;DHT22;14204;51.262;5.488;2023-03-01T05:54:10;0.50;99.90
26537;DHT22;14204;51.262;5.488;2023-03-01T05:56:36;0.50;99.90
26537;DHT22;14204;51.262;5.488;2023-03-01T05:59:03;0.50;99.90
26537;DHT22;14204;51.262;5.488;2023-03-01T06:01:31;0.40;99.90
26537;DHT22;14204;51.262;5.488;2023-03-01T06:03:57;0.40;99.90
26537;DHT22;14204;51.262;5.488;2023-03-01T06:06:23;0.40;99.90
26537;DHT22;14204;51.262;5.488;2023-03-01T06:08:49;0.40;99.90
26537;DHT22;14204;51.262;5.488;2023-03-01T06:11:15;0.40;99.90
26537;DHT22;14204;51.262;5.488;2023-03-01T06:13:43;0.40;99.90
26537;DHT22;14204;51.262;5.488;2023-03-01T06:16:09;0.40;99.90
26537;DHT22;14204;51.262;5.488;2023-03-01T06:18:35;0.30;99.90
26537;DHT22;14204;51.262;5.488;2023-03-01T06:21:01;0.30;99.90
26537;DHT22;14204;51.262;5.488;2023-03-01T06:23:26;0.30;99.90
26537;DHT22;14204;51.262;5.488;2023-03-01T06:25:52;0.30;99.90
26537;DHT22;14204;51.262;5.488;2023-03-01T06:28:18;0.20;99.90
26537;DHT22;14204;51.262;5.488;2023-03-01T06:30:44;0.20;99.90
26537;DHT22;14204;51.262;5.488;2023-03-01T06:33:09;0.20;99.90
26537;DHT22;14204;51.262;5.488;2023-03-01T06:35:35;0.20;99.90
26537;DHT22;14204;51.262;5.488;2023-03-01T06:38:02;0.10;99.90
26537;DHT22;14204;51.262;5.488;2023-03-01T06:40:29;0.10;99.90
26537;DHT22;14204;51.262;5.488;2023-03-01T06:42:55;0.10;99.90
26537;DHT22;14204;51.262;5.488;2023-03-01T06:45:21;0.10;99.90
26537;DHT22;14204;51.262;5.488;2023-03-01T06:47:47;0.10;99.90
26537;DHT22;14204;51.262;5.488;2023-03-01T06:50:13;0.10;99.90
26537;DHT22;14204;51.262;5.488;2023-03-01T06:52:40;0.10;99.90
26537;DHT22;14204;51.262;5.488;2023-03-01T06:55:06;0.10;99.90
26537;DHT22;14204;51.262;5.488;2023-03-01T06:57:32;0.10;99.90
26537;DHT22;14204;51.262;5.488;2023-03-01T06:59:57;0.10;99.90
26537;DHT22;14204;51.262;5.488;2023-03-01T07:02:23;0.10;99.90
26537;DHT22;14204;51.262;5.488;2023-03-01T07:04:50;0.20;99.90
26537;DHT22;14204;51.262;5.488;2023-03-01T07:07:16;0.20;99.90
26537;DHT22;14204;51.262;5.488;2023-03-01T07:09:44;0.20;99.90
26537;DHT22;14204;51.262;5.488;2023-03-01T07:12:10;0.20;99.90
26537;DHT22;14204;51.262;5.488;2023-03-01T07:14:36;0.20;99.90
26537;DHT22;14204;51.262;5.488;2023-03-01T07:17:01;0.20;99.90
26537;DHT22;14204;51.262;5.488;2023-03-01T07:19:27;0.20;99.90
26537;DHT22;14204;51.262;5.488;2023-03-01T07:21:53;0.20;99.90
26537;DHT22;14204;51.262;5.488;2023-03-01T07:24:19;0.20;99.90
26537;DHT22;14204;51.262;5.488;2023-03-01T07:26:51;0.20;99.90
26537;DHT22;14204;51.262;5.488;2023-03-01T07:29:17;0.20;99.90
26537;DHT22;14204;51.262;5.488;2023-03-01T07:31:43;0.20;99.90
26537;DHT22;14204;51.262;5.488;2023-03-01T07:34:09;0.30;99.90
26537;DHT22;14204;51.262;5.488;2023-03-01T07:36:36;0.40;99.90
26537;DHT22;14204;51.262;5.488;2023-03-01T07:39:02;0.40;99.90
26537;DHT22;14204;51.262;5.488;2023-03-01T07:41:29;0.40;99.90
26537;DHT22;14204;51.262;5.488;2023-03-01T07:43:55;0.40;99.90
26537;DHT22;14204;51.262;5.488;2023-03-01T07:46:21;0.40;99.90
26537;DHT22;14204;51.262;5.488;2023-03-01T07:48:47;0.50;99.90
26537;DHT22;14204;51.262;5.488;2023-03-01T07:51:13;0.50;99.90
26537;DHT22;14204;51.262;5.488;2023-03-01T07:53:39;0.50;99.90
26537;DHT22;14204;51.262;5.488;2023-03-01T07:56:09;0.60;99.90
26537;DHT22;14204;51.262;5.488;2023-03-01T07:58:37;0.60;99.90
26537;DHT22;14204;51.262;5.488;2023-03-01T08:01:05;0.70;99.90
26537;DHT22;14204;51.262;5.488;2023-03-01T08:03:31;0.80;99.90
26537;DHT22;14204;51.262;5.488;2023-03-01T08:05:59;0.90;99.90
26537;DHT22;14204;51.262;5.488;2023-03-01T08:08:26;0.90;99.90
26537;DHT22;14204;51.262;5.488;2023-03-01T08:10:52;1.00;99.90
26537;DHT22;14204;51.262;5.488;2023-03-01T08:13:17;1.10;99.90
26537;DHT22;14204;51.262;5.488;2023-03-01T08:15:48;1.40;99.90
26537;DHT22;14204;51.262;5.488;2023-03-01T08:18:18;1.50;99.90
26537;DHT22;14204;51.262;5.488;2023-03-01T08:20:44;1.70;99.90
26537;DHT22;14204;51.262;5.488;2023-03-01T08:23:10;1.90;99.90
26537;DHT22;14204;51.262;5.488;2023-03-01T08:25:35;2.00;99.90
26537;DHT22;14204;51.262;5.488;2023-03-01T08:28:01;2.10;99.90
26537;DHT22;14204;51.262;5.488;2023-03-01T08:30:27;2.20;99.90
26537;DHT22;14204;51.262;5.488;2023-03-01T08:32:53;2.30;99.90
26537;DHT22;14204;51.262;5.488;2023-03-01T08:35:20;2.40;99.90
26537;DHT22;14204;51.262;5.488;2023-03-01T08:37:46;2.50;99.90
26537;DHT22;14204;51.262;5.488;2023-03-01T08:40:12;2.80;99.90
26537;DHT22;14204;51.262;5.488;2023-03-01T08:42:40;3.10;99.90
26537;DHT22;14204;51.262;5.488;2023-03-01T08:45:07;3.10;99.90
26537;DHT22;14204;51.262;5.488;2023-03-01T08:47:33;3.30;99.90
26537;DHT22;14204;51.262;5.488;2023-03-01T08:49:59;3.50;99.90
26537;DHT22;14204;51.262;5.488;2023-03-01T08:52:25;3.40;99.90
26537;DHT22;14204;51.262;5.488;2023-03-01T08:54:52;3.50;99.90
26537;DHT22;14204;51.262;5.488;2023-03-01T08:57:18;3.50;99.90
26537;DHT22;14204;51.262;5.488;2023-03-01T08:59:43;3.40;99.90
26537;DHT22;14204;51.262;5.488;2023-03-01T09:02:14;3.60;99.90
26537;DHT22;14204;51.262;5.488;2023-03-01T09:04:40;3.80;99.90
26537;DHT22;14204;51.262;5.488;2023-03-01T09:07:07;4.10;99.90
26537;DHT22;14204;51.262;5.488;2023-03-01T09:09:33;4.20;99.90
26537;DHT22;14204;51.262;5.488;2023-03-01T09:11:59;4.10;99.90
26537;DHT22;14204;51.262;5.488;2023-03-01T09:14:25;4.30;99.90
26537;DHT22;14204;51.262;5.488;2023-03-01T09:16:51;4.30;99.90
26537;DHT22;14204;51.262;5.488;2023-03-01T09:19:16;4.40;99.90
26537;DHT22;14204;51.262;5.488;2023-03-01T09:21:42;4.40;99.90
26537;DHT22;14204;51.262;5.488;2023-03-01T09:24:21;4.30;99.90
26537;DHT22;14204;51.262;5.488;2023-03-01T09:26:47;4.30;99.90
26537;DHT22;14204;51.262;5.488;2023-03-01T09:29:14;4.30;99.90
26537;DHT22;14204;51.262;5.488;2023-03-01T09:31:41;4.40;99.90
26537;DHT22;14204;51.262;5.488;2023-03-01T09:34:07;4.40;99.90
26537;DHT22;14204;51.262;5.488;2023-03-01T09:36:33;4.60;99.90
26537;DHT22;14204;51.262;5.488;2023-03-01T09:38:59;5.00;99.90
26537;DHT22;14204;51.262;5.488;2023-03-01T09:42:02;5.20;99.90
26537;DHT22;14204;51.262;5.488;2023-03-01T09:44:49;5.20;99.90
26537;DHT22;14204;51.262;5.488;2023-03-01T09:47:22;5.20;99.90
26537;DHT22;14204;51.262;5.488;2023-03-01T09:50:31;5.30;99.90
26537;DHT22;14204;51.262;5.488;2023-03-01T09:53:33;5.20;99.90
26537;DHT22;14204;51.262;5.488;2023-03-01T10:04:04;5.30;99.90
26537;DHT22;14204;51.262;5.488;2023-03-01T10:06:32;5.30;99.90
26537;DHT22;14204;51.262;5.488;2023-03-01T10:09:16;5.30;99.90
26537;DHT22;14204;51.262;5.488;2023-03-01T10:11:46;5.40;99.90
26537;DHT22;14204;51.262;5.488;2023-03-01T10:14:33;5.50;99.90
26537;DHT22;14204;51.262;5.488;2023-03-01T10:17:10;5.30;99.90
26537;DHT22;14204;51.262;5.488;2023-03-01T10:19:44;5.30;99.90
26537;DHT22;14204;51.262;5.488;2023-03-01T10:22:18;5.40;99.90
26537;DHT22;14204;51.262;5.488;2023-03-01T10:24:44;5.60;99.90
26537;DHT22;14204;51.262;5.488;2023-03-01T10:30:14;5.90;99.90
26537;DHT22;14204;51.262;5.488;2023-03-01T10:32:44;6.00;99.90
26537;DHT22;14204;51.262;5.488;2023-03-01T10:35:21;6.10;99.90
26537;DHT22;14204;51.262;5.488;2023-03-01T10:38:17;6.20;99.90
26537;DHT22;14204;51.262;5.488;2023-03-01T10:40:55;6.60;99.90
26537;DHT22;14204;51.262;5.488;2023-03-01T10:43:32;6.60;99.90
26537;DHT22;14204;51.262;5.488;2023-03-01T10:49:14;6.40;99.90
26537;DHT22;14204;51.262;5.488;2023-03-01T10:51:42;6.60;99.90
26537;DHT22;14204;51.262;5.488;2023-03-01T10:54:29;6.80;99.90
26537;DHT22;14204;51.262;5.488;2023-03-01T10:56:57;6.90;99.90
26537;DHT22;14204;51.262;5.488;2023-03-01T11:05:15;7.00;99.90
26537;DHT22;14204;51.262;5.488;2023-03-01T11:07:59;6.90;99.90
26537;DHT22;14204;51.262;5.488;2023-03-01T11:10:35;7.00;99.90
26537;DHT22;14204;51.262;5.488;2023-03-01T11:13:18;7.10;99.90
26537;DHT22;14204;51.262;5.488;2023-03-01T11:16:09;7.20;99.90
26537;DHT22;14204;51.262;5.488;2023-03-01T11:18:35;6.90;99.90
26537;DHT22;14204;51.262;5.488;2023-03-01T11:21:01;6.90;99.90
26537;DHT22;14204;51.262;5.488;2023-03-01T11:23:30;7.10;99.90
26537;DHT22;14204;51.262;5.488;2023-03-01T11:25:59;7.00;99.90
26537;DHT22;14204;51.262;5.488;2023-03-01T11:28:26;6.90;99.90
26537;DHT22;14204;51.262;5.488;2023-03-01T11:38:55;7.40;99.90
26537;DHT22;14204;51.262;5.488;2023-03-01T11:41:25;7.40;99.90
26537;DHT22;14204;51.262;5.488;2023-03-01T11:44:18;7.50;99.90
26537;DHT22;14204;51.262;5.488;2023-03-01T11:52:36;7.60;99.90
26537;DHT22;14204;51.262;5.488;2023-03-01T12:03:30;7.80;99.90
26537;DHT22;14204;51.262;5.488;2023-03-01T12:06:20;7.90;99.90
26537;DHT22;14204;51.262;5.488;2023-03-01T12:12:02;7.80;99.90
26537;DHT22;14204;51.262;5.488;2023-03-01T12:25:06;8.10;99.90
26537;DHT22;14204;51.262;5.488;2023-03-01T12:31:05;8.00;99.90
26537;DHT22;14204;51.262;5.488;2023-03-01T12:34:35;8.00;99.90
26537;DHT22;14204;51.262;5.488;2023-03-01T12:36:44;8.00;99.90
26537;DHT22;14204;51.262;5.488;2023-03-01T12:39:27;8.00;99.90
26537;DHT22;14204;51.262;5.488;2023-03-01T12:42:36;8.10;99.90
26537;DHT22;14204;51.262;5.488;2023-03-01T12:50:21;8.20;99.90
26537;DHT22;14204;51.262;5.488;2023-03-01T12:52:55;8.10;99.90
26537;DHT22;14204;51.262;5.488;2023-03-01T12:55:26;8.20;99.90
26537;DHT22;14204;51.262;5.488;2023-03-01T12:58:39;8.10;99.90
26537;DHT22;14204;51.262;5.488;2023-03-01T13:12:00;8.10;99.90
26537;DHT22;14204;51.262;5.488;2023-03-01T13:16:52;8.10;99.90
26537;DHT22;14204;51.262;5.488;2023-03-01T13:19:23;8.10;99.90
26537;DHT22;14204;51.262;5.488;2023-03-01T13:21:51;8.10;99.90
26537;DHT22;14204;51.262;5.488;2023-03-01T13:24:38;8.00;99.90
26537;DHT22;14204;51.262;5.488;2023-03-01T13:34:50;7.90;99.90
26537;DHT22;14204;51.262;5.488;2023-03-01T13:37:25;7.90;99.90
26537;DHT22;14204;51.262;5.488;2023-03-01T13:39:52;8.00;99.90
26537;DHT22;14204;51.262;5.488;2023-03-01T13:42:48;7.80;99.90
26537;DHT22;14204;51.262;5.488;2023-03-01T13:47:45;7.80;99.90
26537;DHT22;14204;51.262;5.488;2023-03-01T13:50:23;7.70;99.90
26537;DHT22;14204;51.262;5.488;2023-03-01T13:52:59;7.70;99.90
26537;DHT22;14204;51.262;5.488;2023-03-01T13:55:45;7.70;99.90
26537;DHT22;14204;51.262;5.488;2023-03-01T13:58:29;7.70;99.90
26537;DHT22;14204;51.262;5.488;2023-03-01T14:01:06;7.70;99.90
26537;DHT22;14204;51.262;5.488;2023-03-01T14:03:41;7.70;99.90
26537;DHT22;14204;51.262;5.488;2023-03-01T14:06:20;7.60;99.90
26537;DHT22;14204;51.262;5.488;2023-03-01T14:08:47;7.70;99.90
26537;DHT22;14204;51.262;5.488;2023-03-01T14:17:01;8.00;99.90
26537;DHT22;14204;51.262;5.488;2023-03-01T14:19:30;7.80;99.90
26537;DHT22;14204;51.262;5.488;2023-03-01T14:24:51;8.00;99.90
26537;DHT22;14204;51.262;5.488;2023-03-01T14:27:19;8.00;99.90
26537;DHT22;14204;51.262;5.488;2023-03-01T14:30:04;8.00;99.90
26537;DHT22;14204;51.262;5.488;2023-03-01T14:32:35;7.80;99.90
26537;DHT22;14204;51.262;5.488;2023-03-01T14:35:01;7.90;99.90
26537;DHT22;14204;51.262;5.488;2023-03-01T14:37:28;7.80;99.90
26537;DHT22;14204;51.262;5.488;2023-03-01T14:39:55;7.80;99.90
26537;DHT22;14204;51.262;5.488;2023-03-01T14:42:23;7.90;99.90
26537;DHT22;14204;51.262;5.488;2023-03-01T14:44:52;7.90;99.90
26537;DHT22;14204;51.262;5.488;2023-03-01T14:47:29;7.90;99.90
26537;DHT22;14204;51.262;5.488;2023-03-01T14:52:44;8.00;99.90
26537;DHT22;14204;51.262;5.488;2023-03-01T14:55:19;8.00;99.90
26537;DHT22;14204;51.262;5.488;2023-03-01T14:57:48;8.00;99.90
26537;DHT22;14204;51.262;5.488;2023-03-01T15:00:22;7.90;99.90
26537;DHT22;14204;51.262;5.488;2023-03-01T15:02:49;7.90;99.90
26537;DHT22;14204;51.262;5.488;2023-03-01T15:05:22;7.90;99.90
26537;DHT22;14204;51.262;5.488;2023-03-01T15:07:48;7.90;99.90
26537;DHT22;14204;51.262;5.488;2023-03-01T15:10:24;7.90;99.90
26537;DHT22;14204;51.262;5.488;2023-03-01T15:12:50;7.80;99.90
26537;DHT22;14204;51.262;5.488;2023-03-01T15:15:41;7.80;99.90
26537;DHT22;14204;51.262;5.488;2023-03-01T15:18:33;7.70;99.90
26537;DHT22;14204;51.262;5.488;2023-03-01T15:21:15;7.80;99.90
26537;DHT22;14204;51.262;5.488;2023-03-01T15:23:41;7.80;99.90
26537;DHT22;14204;51.262;5.488;2023-03-01T15:26:31;7.80;99.90
26537;DHT22;14204;51.262;5.488;2023-03-01T15:28:59;7.80;99.90
26537;DHT22;14204;51.262;5.488;2023-03-01T15:31:28;7.70;99.90
26537;DHT22;14204;51.262;5.488;2023-03-01T15:34:21;7.60;99.90
26537;DHT22;14204;51.262;5.488;2023-03-01T15:36:48;7.60;99.90
26537;DHT22;14204;51.262;5.488;2023-03-01T15:39:43;7.40;99.90
26537;DHT22;14204;51.262;5.488;2023-03-01T15:48:13;7.50;99.90
26537;DHT22;14204;51.262;5.488;2023-03-01T15:50:41;7.50;99.90
26537;DHT22;14204;51.262;5.488;2023-03-01T15:53:13;7.60;99.90
26537;DHT22;14204;51.262;5.488;2023-03-01T15:55:40;7.50;99.90
26537;DHT22;14204;51.262;5.488;2023-03-01T15:58:12;7.60;99.90
26537;DHT22;14204;51.262;5.488;2023-03-01T16:00:38;7.50;99.90
26537;DHT22;14204;51.262;5.488;2023-03-01T16:03:04;7.50;99.90
26537;DHT22;14204;51.262;5.488;2023-03-01T16:05:33;7.50;99.90
26537;DHT22;14204;51.262;5.488;2023-03-01T16:08:00;7.50;99.90
26537;DHT22;14204;51.262;5.488;2023-03-01T16:10:26;7.50;99.90
26537;DHT22;14204;51.262;5.488;2023-03-01T16:12:53;7.40;99.90
26537;DHT22;14204;51.262;5.488;2023-03-01T16:15:31;7.40;99.90
26537;DHT22;14204;51.262;5.488;2023-03-01T16:17:57;7.40;99.90
26537;DHT22;14204;51.262;5.488;2023-03-01T16:20:24;7.40;99.90
26537;DHT22;14204;51.262;5.488;2023-03-01T16:22:51;7.40;99.90
26537;DHT22;14204;51.262;5.488;2023-03-01T16:25:18;7.30;99.90
26537;DHT22;14204;51.262;5.488;2023-03-01T16:27:46;7.30;99.90
26537;DHT22;14204;51.262;5.488;2023-03-01T16:30:13;7.20;99.90
26537;DHT22;14204;51.262;5.488;2023-03-01T16:32:40;7.20;99.90
26537;DHT22;14204;51.262;5.488;2023-03-01T16:35:07;7.20;99.90
26537;DHT22;14204;51.262;5.488;2023-03-01T16:37:34;7.20;99.90
26537;DHT22;14204;51.262;5.488;2023-03-01T16:40:00;7.20;99.90
26537;DHT22;14204;51.262;5.488;2023-03-01T16:42:26;7.20;99.90
26537;DHT22;14204;51.262;5.488;2023-03-01T16:44:55;7.10;99.90
26537;DHT22;14204;51.262;5.488;2023-03-01T16:47:21;7.10;99.90
26537;DHT22;14204;51.262;5.488;2023-03-01T16:49:47;7.10;99.90
26537;DHT22;14204;51.262;5.488;2023-03-01T16:52:13;7.10;99.90
26537;DHT22;14204;51.262;5.488;2023-03-01T16:54:38;7.10;99.90
26537;DHT22;14204;51.262;5.488;2023-03-01T16:57:04;6.90;99.90
26537;DHT22;14204;51.262;5.488;2023-03-01T16:59:30;6.90;99.90
26537;DHT22;14204;51.262;5.488;2023-03-01T17:01:55;6.90;99.90
26537;DHT22;14204;51.262;5.488;2023-03-01T17:04:21;6.90;99.90
26537;DHT22;14204;51.262;5.488;2023-03-01T17:06:47;6.80;99.90
26537;DHT22;14204;51.262;5.488;2023-03-01T17:09:14;6.90;99.90
26537;DHT22;14204;51.262;5.488;2023-03-01T17:11:39;6.80;99.90
26537;DHT22;14204;51.262;5.488;2023-03-01T17:14:05;6.80;99.90
26537;DHT22;14204;51.262;5.488;2023-03-01T17:16:30;6.70;99.90
26537;DHT22;14204;51.262;5.488;2023-03-01T17:18:56;6.70;99.90
26537;DHT22;14204;51.262;5.488;2023-03-01T17:21:22;6.70;99.90
26537;DHT22;14204;51.262;5.488;2023-03-01T17:23:48;6.70;99.90
26537;DHT22;14204;51.262;5.488;2023-03-01T17:26:15;6.60;99.90
26537;DHT22;14204;51.262;5.488;2023-03-01T17:28:41;6.60;99.90
26537;DHT22;14204;51.262;5.488;2023-03-01T17:31:08;6.60;99.90
26537;DHT22;14204;51.262;5.488;2023-03-01T17:33:34;6.60;99.90
26537;DHT22;14204;51.262;5.488;2023-03-01T17:36:00;6.50;99.90
26537;DHT22;14204;51.262;5.488;2023-03-01T17:38:26;6.40;99.90
26537;DHT22;14204;51.262;5.488;2023-03-01T17:40:52;6.30;99.90
26537;DHT22;14204;51.262;5.488;2023-03-01T17:43:18;6.30;99.90
26537;DHT22;14204;51.262;5.488;2023-03-01T17:45:45;6.30;99.90
26537;DHT22;14204;51.262;5.488;2023-03-01T17:48:15;6.30;99.90
26537;DHT22;14204;51.262;5.488;2023-03-01T17:50:41;6.20;99.90
26537;DHT22;14204;51.262;5.488;2023-03-01T17:53:07;6.10;99.90